sensor_id;sensor_type;location;lat;lon;timestamp;P1;durP1;ratioP1;P2;durP2;ratioP2
4182;SDS011;2105;52.300;9.182;2022-09-03T00:00:57;4.27;;;3.97;;
4182;SDS011;2105;52.300;9.182;2022-09-03T00:03:28;7.93;;;3.90;;
4182;SDS011;2105;52.300;9.182;2022-09-03T00:06:06;4.30;;;4.00;;
4182;SDS011;2105;52.300;9.182;2022-09-03T00:08:38;4.40;;;4.00;;
4182;SDS011;2105;52.300;9.182;2022-09-03T00:11:13;4.60;;;4.20;;
4182;SDS011;2105;52.300;9.182;2022-09-03T00:13:44;4.30;;;3.83;;
4182;SDS011;2105;52.300;9.182;2022-09-03T00:16:16;4.07;;;3.77;;
4182;SDS011;2105;52.300;9.182;2022-09-03T00:18:46;4.27;;;3.83;;
4182;SDS011;2105;52.300;9.182;2022-09-03T00:21:20;6.33;;;3.73;;
4182;SDS011;2105;52.300;9.182;2022-09-03T00:23:52;4.17;;;3.87;;
4182;SDS011;2105;52.300;9.182;2022-09-03T00:26:21;4.73;;;3.70;;
4182;SDS011;2105;52.300;9.182;2022-09-03T00:28:54;3.80;;;3.47;;
4182;SDS011;2105;52.300;9.182;2022-09-03T00:31:26;4.13;;;3.80;;
4182;SDS011;2105;52.300;9.182;2022-09-03T00:33:59;4.13;;;3.70;;
4182;SDS011;2105;52.300;9.182;2022-09-03T00:36:33;5.20;;;3.87;;
4182;SDS011;2105;52.300;9.182;2022-09-03T00:39:07;4.20;;;3.90;;
4182;SDS011;2105;52.300;9.182;2022-09-03T00:41:36;8.73;;;3.83;;
4182;SDS011;2105;52.300;9.182;2022-09-03T00:44:16;8.17;;;3.90;;
4182;SDS011;2105;52.300;9.182;2022-09-03T00:47:03;4.37;;;4.03;;
4182;SDS011;2105;52.300;9.182;2022-09-03T00:49:39;4.40;;;4.10;;
4182;SDS011;2105;52.300;9.182;2022-09-03T00:52:17;4.30;;;4.00;;
4182;SDS011;2105;52.300;9.182;2022-09-03T00:54:52;5.37;;;3.90;;
4182;SDS011;2105;52.300;9.182;2022-09-03T00:57:29;4.53;;;3.83;;
4182;SDS011;2105;52.300;9.182;2022-09-03T01:00:03;4.60;;;4.10;;
4182;SDS011;2105;52.300;9.182;2022-09-03T01:02:36;5.83;;;4.00;;
4182;SDS011;2105;52.300;9.182;2022-09-03T01:05:20;4.17;;;3.90;;
4182;SDS011;2105;52.300;9.182;2022-09-03T01:08:02;4.30;;;4.00;;
4182;SDS011;2105;52.300;9.182;2022-09-03T01:10:45;4.40;;;4.00;;
4182;SDS011;2105;52.300;9.182;2022-09-03T01:13:19;4.20;;;3.80;;
4182;SDS011;2105;52.300;9.182;2022-09-03T01:15:50;4.40;;;4.00;;
4182;SDS011;2105;52.300;9.182;2022-09-03T01:18:27;7.13;;;4.10;;
4182;SDS011;2105;52.300;9.182;2022-09-03T01:21:15;6.00;;;3.90;;
4182;SDS011;2105;52.300;9.182;2022-09-03T01:24:06;6.70;;;4.00;;
4182;SDS011;2105;52.300;9.182;2022-09-03T01:27:04;4.40;;;4.10;;
4182;SDS011;2105;52.300;9.182;2022-09-03T01:29:41;4.23;;;3.83;;
4182;SDS011;2105;52.300;9.182;2022-09-03T01:32:13;5.20;;;4.07;;
4182;SDS011;2105;52.300;9.182;2022-09-03T01:34:50;7.00;;;3.90;;
4182;SDS011;2105;52.300;9.182;2022-09-03T01:37:26;4.20;;;3.90;;
4182;SDS011;2105;52.300;9.182;2022-09-03T01:40:04;4.30;;;3.77;;
4182;SDS011;2105;52.300;9.182;2022-09-03T01:42:42;4.23;;;3.83;;
4182;SDS011;2105;52.300;9.182;2022-09-03T01:48:21;5.53;;;3.90;;
4182;SDS011;2105;52.300;9.182;2022-09-03T01:51:09;4.30;;;4.00;;
4182;SDS011;2105;52.300;9.182;2022-09-03T01:53:47;4.03;;;3.70;;
4182;SDS011;2105;52.300;9.182;2022-09-03T01:56:36;5.80;;;4.13;;
4182;SDS011;2105;52.300;9.182;2022-09-03T01:59:17;3.90;;;3.60;;
4182;SDS011;2105;52.300;9.182;2022-09-03T02:01:52;4.20;;;3.90;;
4182;SDS011;2105;52.300;9.182;2022-09-03T02:04:23;4.20;;;3.57;;
4182;SDS011;2105;52.300;9.182;2022-09-03T02:06:53;4.23;;;3.93;;
4182;SDS011;2105;52.300;9.182;2022-09-03T02:09:22;5.60;;;3.70;;
4182;SDS011;2105;52.300;9.182;2022-09-03T02:11:50;4.00;;;3.70;;
4182;SDS011;2105;52.300;9.182;2022-09-03T02:14:21;8.73;;;3.90;;
4182;SDS011;2105;52.300;9.182;2022-09-03T02:16:49;4.63;;;3.60;;
4182;SDS011;2105;52.300;9.182;2022-09-03T02:19:16;3.93;;;3.60;;
4182;SDS011;2105;52.300;9.182;2022-09-03T02:21:44;3.60;;;3.40;;
4182;SDS011;2105;52.300;9.182;2022-09-03T02:24:15;3.70;;;3.50;;
4182;SDS011;2105;52.300;9.182;2022-09-03T02:26:42;6.80;;;3.70;;
4182;SDS011;2105;52.300;9.182;2022-09-03T02:29:09;3.90;;;3.50;;
4182;SDS011;2105;52.300;9.182;2022-09-03T02:31:35;3.90;;;3.70;;
4182;SDS011;2105;52.300;9.182;2022-09-03T02:34:03;4.00;;;3.70;;
4182;SDS011;2105;52.300;9.182;2022-09-03T02:36:31;4.40;;;3.70;;
4182;SDS011;2105;52.300;9.182;2022-09-03T02:39:00;4.30;;;3.90;;
4182;SDS011;2105;52.300;9.182;2022-09-03T02:41:26;4.63;;;3.87;;
4182;SDS011;2105;52.300;9.182;2022-09-03T02:43:54;4.20;;;3.90;;
4182;SDS011;2105;52.300;9.182;2022-09-03T02:46:28;3.93;;;3.67;;
4182;SDS011;2105;52.300;9.182;2022-09-03T02:48:59;3.80;;;3.50;;
4182;SDS011;2105;52.300;9.182;2022-09-03T02:51:30;4.80;;;3.97;;
4182;SDS011;2105;52.300;9.182;2022-09-03T02:53:57;3.90;;;3.60;;
4182;SDS011;2105;52.300;9.182;2022-09-03T02:56:24;3.90;;;3.60;;
4182;SDS011;2105;52.300;9.182;2022-09-03T02:58:52;4.27;;;3.50;;
4182;SDS011;2105;52.300;9.182;2022-09-03T03:01:18;3.90;;;3.30;;
4182;SDS011;2105;52.300;9.182;2022-09-03T03:03:45;5.53;;;3.30;;
4182;SDS011;2105;52.300;9.182;2022-09-03T03:06:11;3.60;;;3.30;;
4182;SDS011;2105;52.300;9.182;2022-09-03T03:08:40;5.50;;;3.10;;
4182;SDS011;2105;52.300;9.182;2022-09-03T03:11:08;8.73;;;3.10;;
4182;SDS011;2105;52.300;9.182;2022-09-03T03:13:35;3.53;;;3.23;;
4182;SDS011;2105;52.300;9.182;2022-09-03T03:16:02;4.23;;;3.60;;
4182;SDS011;2105;52.300;9.182;2022-09-03T03:18:30;6.63;;;2.93;;
4182;SDS011;2105;52.300;9.182;2022-09-03T03:21:02;3.47;;;3.10;;
4182;SDS011;2105;52.300;9.182;2022-09-03T03:23:30;4.10;;;3.00;;
4182;SDS011;2105;52.300;9.182;2022-09-03T03:26:00;3.33;;;2.80;;
4182;SDS011;2105;52.300;9.182;2022-09-03T03:28:28;5.47;;;3.13;;
4182;SDS011;2105;52.300;9.182;2022-09-03T03:30:56;3.37;;;3.00;;
4182;SDS011;2105;52.300;9.182;2022-09-03T03:33:23;7.23;;;2.50;;
4182;SDS011;2105;52.300;9.182;2022-09-03T03:35:49;2.90;;;2.70;;
4182;SDS011;2105;52.300;9.182;2022-09-03T03:38:16;3.23;;;2.93;;
4182;SDS011;2105;52.300;9.182;2022-09-03T03:40:42;2.83;;;2.63;;
4182;SDS011;2105;52.300;9.182;2022-09-03T03:43:10;3.13;;;2.90;;
4182;SDS011;2105;52.300;9.182;2022-09-03T03:45:37;2.90;;;2.70;;
4182;SDS011;2105;52.300;9.182;2022-09-03T03:48:03;3.27;;;3.00;;
4182;SDS011;2105;52.300;9.182;2022-09-03T03:50:30;7.40;;;3.20;;
4182;SDS011;2105;52.300;9.182;2022-09-03T03:52:58;7.03;;;3.23;;
4182;SDS011;2105;52.300;9.182;2022-09-03T03:55:25;3.20;;;3.00;;
4182;SDS011;2105;52.300;9.182;2022-09-03T03:57:52;3.07;;;2.83;;
4182;SDS011;2105;52.300;9.182;2022-09-03T04:00:20;4.50;;;3.00;;
4182;SDS011;2105;52.300;9.182;2022-09-03T04:02:46;3.83;;;3.13;;
4182;SDS011;2105;52.300;9.182;2022-09-03T04:05:13;3.10;;;2.90;;
4182;SDS011;2105;52.300;9.182;2022-09-03T04:07:40;3.70;;;2.90;;
4182;SDS011;2105;52.300;9.182;2022-09-03T04:10:08;3.10;;;2.80;;
4182;SDS011;2105;52.300;9.182;2022-09-03T04:12:34;9.50;;;2.87;;
4182;SDS011;2105;52.300;9.182;2022-09-03T04:15:01;3.03;;;2.73;;
4182;SDS011;2105;52.300;9.182;2022-09-03T04:17:30;3.10;;;2.80;;
4182;SDS011;2105;52.300;9.182;2022-09-03T04:19:57;4.17;;;3.10;;
4182;SDS011;2105;52.300;9.182;2022-09-03T04:22:23;3.23;;;2.90;;
4182;SDS011;2105;52.300;9.182;2022-09-03T04:24:50;3.30;;;2.90;;
4182;SDS011;2105;52.300;9.182;2022-09-03T04:27:16;4.93;;;2.97;;
4182;SDS011;2105;52.300;9.182;2022-09-03T04:29:43;5.40;;;3.17;;
4182;SDS011;2105;52.300;9.182;2022-09-03T04:32:09;3.37;;;3.07;;
4182;SDS011;2105;52.300;9.182;2022-09-03T04:34:55;3.53;;;3.17;;
4182;SDS011;2105;52.300;9.182;2022-09-03T04:37:22;3.60;;;3.30;;
4182;SDS011;2105;52.300;9.182;2022-09-03T04:39:48;4.03;;;3.40;;
4182;SDS011;2105;52.300;9.182;2022-09-03T04:42:15;3.90;;;3.27;;
4182;SDS011;2105;52.300;9.182;2022-09-03T04:44:42;3.80;;;3.50;;
4182;SDS011;2105;52.300;9.182;2022-09-03T04:47:08;3.90;;;3.00;;
4182;SDS011;2105;52.300;9.182;2022-09-03T04:49:35;3.50;;;3.20;;
4182;SDS011;2105;52.300;9.182;2022-09-03T04:52:05;6.80;;;3.80;;
4182;SDS011;2105;52.300;9.182;2022-09-03T04:54:32;3.67;;;3.17;;
4182;SDS011;2105;52.300;9.182;2022-09-03T04:56:58;8.80;;;3.60;;
4182;SDS011;2105;52.300;9.182;2022-09-03T04:59:25;3.43;;;3.13;;
4182;SDS011;2105;52.300;9.182;2022-09-03T05:01:51;4.10;;;3.20;;
4182;SDS011;2105;52.300;9.182;2022-09-03T05:04:20;3.93;;;3.40;;
4182;SDS011;2105;52.300;9.182;2022-09-03T05:06:46;4.00;;;3.60;;
4182;SDS011;2105;52.300;9.182;2022-09-03T05:09:15;6.03;;;3.40;;
4182;SDS011;2105;52.300;9.182;2022-09-03T05:11:41;4.20;;;3.20;;
4182;SDS011;2105;52.300;9.182;2022-09-03T05:14:08;6.17;;;4.47;;
4182;SDS011;2105;52.300;9.182;2022-09-03T05:16:36;5.00;;;3.17;;
4182;SDS011;2105;52.300;9.182;2022-09-03T05:19:03;3.30;;;3.00;;
4182;SDS011;2105;52.300;9.182;2022-09-03T05:21:32;5.63;;;3.03;;
4182;SDS011;2105;52.300;9.182;2022-09-03T05:24:00;4.10;;;3.10;;
4182;SDS011;2105;52.300;9.182;2022-09-03T05:26:30;4.40;;;3.10;;
4182;SDS011;2105;52.300;9.182;2022-09-03T05:28:58;3.63;;;3.33;;
4182;SDS011;2105;52.300;9.182;2022-09-03T05:31:26;3.97;;;3.23;;
4182;SDS011;2105;52.300;9.182;2022-09-03T05:33:56;9.83;;;3.30;;
4182;SDS011;2105;52.300;9.182;2022-09-03T05:36:25;4.20;;;3.70;;
4182;SDS011;2105;52.300;9.182;2022-09-03T05:38:53;3.60;;;3.30;;
4182;SDS011;2105;52.300;9.182;2022-09-03T05:41:20;8.23;;;3.00;;
4182;SDS011;2105;52.300;9.182;2022-09-03T05:43:49;4.77;;;3.40;;
4182;SDS011;2105;52.300;9.182;2022-09-03T05:46:19;4.60;;;3.30;;
4182;SDS011;2105;52.300;9.182;2022-09-03T05:48:46;3.97;;;3.30;;
4182;SDS011;2105;52.300;9.182;2022-09-03T05:51:13;3.47;;;3.27;;
4182;SDS011;2105;52.300;9.182;2022-09-03T05:53:42;3.57;;;3.30;;
4182;SDS011;2105;52.300;9.182;2022-09-03T05:56:10;3.90;;;3.50;;
4182;SDS011;2105;52.300;9.182;2022-09-03T05:58:38;3.70;;;3.40;;
4182;SDS011;2105;52.300;9.182;2022-09-03T06:01:12;3.60;;;3.30;;
4182;SDS011;2105;52.300;9.182;2022-09-03T06:03:40;5.93;;;3.30;;
4182;SDS011;2105;52.300;9.182;2022-09-03T06:06:08;8.10;;;3.27;;
4182;SDS011;2105;52.300;9.182;2022-09-03T06:08:35;3.10;;;2.90;;
4182;SDS011;2105;52.300;9.182;2022-09-03T06:11:03;3.80;;;3.13;;
4182;SDS011;2105;52.300;9.182;2022-09-03T06:13:31;4.63;;;3.23;;
4182;SDS011;2105;52.300;9.182;2022-09-03T06:15:59;3.50;;;3.17;;
4182;SDS011;2105;52.300;9.182;2022-09-03T06:18:28;3.90;;;3.30;;
4182;SDS011;2105;52.300;9.182;2022-09-03T06:20:56;3.63;;;3.23;;
4182;SDS011;2105;52.300;9.182;2022-09-03T06:23:24;4.50;;;3.80;;
4182;SDS011;2105;52.300;9.182;2022-09-03T06:26:01;3.70;;;3.40;;
4182;SDS011;2105;52.300;9.182;2022-09-03T06:28:29;3.77;;;3.47;;
4182;SDS011;2105;52.300;9.182;2022-09-03T06:30:59;3.93;;;3.40;;
4182;SDS011;2105;52.300;9.182;2022-09-03T06:33:26;6.37;;;3.60;;
4182;SDS011;2105;52.300;9.182;2022-09-03T06:35:55;4.03;;;3.70;;
4182;SDS011;2105;52.300;9.182;2022-09-03T06:38:23;4.87;;;3.43;;
4182;SDS011;2105;52.300;9.182;2022-09-03T06:40:51;3.50;;;3.30;;
4182;SDS011;2105;52.300;9.182;2022-09-03T06:43:22;4.00;;;3.70;;
4182;SDS011;2105;52.300;9.182;2022-09-03T06:45:53;3.90;;;3.60;;
4182;SDS011;2105;52.300;9.182;2022-09-03T06:48:21;4.90;;;3.57;;
4182;SDS011;2105;52.300;9.182;2022-09-03T06:50:55;5.73;;;4.00;;
4182;SDS011;2105;52.300;9.182;2022-09-03T06:53:23;4.00;;;3.60;;
4182;SDS011;2105;52.300;9.182;2022-09-03T06:55:51;4.10;;;3.70;;
4182;SDS011;2105;52.300;9.182;2022-09-03T06:58:19;4.70;;;3.83;;
4182;SDS011;2105;52.300;9.182;2022-09-03T07:00:46;6.70;;;3.57;;
4182;SDS011;2105;52.300;9.182;2022-09-03T07:03:13;4.10;;;3.80;;
4182;SDS011;2105;52.300;9.182;2022-09-03T07:05:40;4.47;;;4.07;;
4182;SDS011;2105;52.300;9.182;2022-09-03T07:08:09;25.93;;;5.77;;
4182;SDS011;2105;52.300;9.182;2022-09-03T07:10:36;4.50;;;4.17;;
4182;SDS011;2105;52.300;9.182;2022-09-03T07:13:03;4.30;;;3.90;;
4182;SDS011;2105;52.300;9.182;2022-09-03T07:15:30;4.40;;;4.00;;
4182;SDS011;2105;52.300;9.182;2022-09-03T07:17:57;4.20;;;3.80;;
4182;SDS011;2105;52.300;9.182;2022-09-03T07:20:24;4.47;;;4.10;;
4182;SDS011;2105;52.300;9.182;2022-09-03T07:22:53;4.50;;;4.10;;
4182;SDS011;2105;52.300;9.182;2022-09-03T07:25:22;4.20;;;3.90;;
4182;SDS011;2105;52.300;9.182;2022-09-03T07:27:50;6.27;;;4.33;;
4182;SDS011;2105;52.300;9.182;2022-09-03T07:30:17;5.27;;;4.20;;
4182;SDS011;2105;52.300;9.182;2022-09-03T07:32:44;4.37;;;4.03;;
4182;SDS011;2105;52.300;9.182;2022-09-03T07:35:11;6.13;;;4.23;;
4182;SDS011;2105;52.300;9.182;2022-09-03T07:37:39;6.97;;;4.50;;
4182;SDS011;2105;52.300;9.182;2022-09-03T07:40:07;6.63;;;4.40;;
4182;SDS011;2105;52.300;9.182;2022-09-03T07:42:36;4.87;;;4.47;;
4182;SDS011;2105;52.300;9.182;2022-09-03T07:45:04;5.27;;;4.87;;
4182;SDS011;2105;52.300;9.182;2022-09-03T07:47:34;5.37;;;4.60;;
4182;SDS011;2105;52.300;9.182;2022-09-03T07:50:01;5.50;;;5.10;;
4182;SDS011;2105;52.300;9.182;2022-09-03T07:52:28;5.10;;;4.70;;
4182;SDS011;2105;52.300;9.182;2022-09-03T07:54:55;5.30;;;4.73;;
4182;SDS011;2105;52.300;9.182;2022-09-03T07:57:22;5.80;;;5.20;;
4182;SDS011;2105;52.300;9.182;2022-09-03T07:59:49;8.33;;;5.50;;
4182;SDS011;2105;52.300;9.182;2022-09-03T08:02:16;9.70;;;5.40;;
4182;SDS011;2105;52.300;9.182;2022-09-03T08:04:43;6.00;;;5.00;;
4182;SDS011;2105;52.300;9.182;2022-09-03T08:07:09;5.73;;;5.23;;
4182;SDS011;2105;52.300;9.182;2022-09-03T08:09:36;6.80;;;5.10;;
4182;SDS011;2105;52.300;9.182;2022-09-03T08:12:03;9.93;;;4.97;;
4182;SDS011;2105;52.300;9.182;2022-09-03T08:14:30;9.53;;;5.67;;
4182;SDS011;2105;52.300;9.182;2022-09-03T08:16:58;8.53;;;5.83;;
4182;SDS011;2105;52.300;9.182;2022-09-03T08:19:25;6.90;;;5.30;;
4182;SDS011;2105;52.300;9.182;2022-09-03T08:21:51;5.87;;;5.03;;
4182;SDS011;2105;52.300;9.182;2022-09-03T08:24:18;7.00;;;5.40;;
4182;SDS011;2105;52.300;9.182;2022-09-03T08:26:48;5.53;;;5.13;;
4182;SDS011;2105;52.300;9.182;2022-09-03T08:29:15;7.13;;;4.83;;
4182;SDS011;2105;52.300;9.182;2022-09-03T08:31:41;5.40;;;4.90;;
4182;SDS011;2105;52.300;9.182;2022-09-03T08:34:10;5.90;;;5.17;;
4182;SDS011;2105;52.300;9.182;2022-09-03T08:36:38;6.43;;;5.00;;
4182;SDS011;2105;52.300;9.182;2022-09-03T08:39:06;6.63;;;5.10;;
4182;SDS011;2105;52.300;9.182;2022-09-03T08:41:37;7.00;;;5.67;;
4182;SDS011;2105;52.300;9.182;2022-09-03T08:44:17;7.00;;;5.20;;
4182;SDS011;2105;52.300;9.182;2022-09-03T08:46:49;5.67;;;5.23;;
4182;SDS011;2105;52.300;9.182;2022-09-03T08:49:23;5.93;;;5.07;;
4182;SDS011;2105;52.300;9.182;2022-09-03T08:51:54;5.67;;;5.17;;
4182;SDS011;2105;52.300;9.182;2022-09-03T08:54:24;6.13;;;5.33;;
4182;SDS011;2105;52.300;9.182;2022-09-03T08:56:54;6.17;;;4.93;;
4182;SDS011;2105;52.300;9.182;2022-09-03T08:59:25;5.80;;;5.20;;
4182;SDS011;2105;52.300;9.182;2022-09-03T09:01:54;6.50;;;5.70;;
4182;SDS011;2105;52.300;9.182;2022-09-03T09:04:31;5.67;;;4.83;;
4182;SDS011;2105;52.300;9.182;2022-09-03T09:07:09;6.43;;;5.10;;
4182;SDS011;2105;52.300;9.182;2022-09-03T09:09:43;5.40;;;4.90;;
4182;SDS011;2105;52.300;9.182;2022-09-03T09:12:16;5.50;;;5.00;;
4182;SDS011;2105;52.300;9.182;2022-09-03T09:14:59;5.50;;;5.10;;
4182;SDS011;2105;52.300;9.182;2022-09-03T09:17:40;5.50;;;5.00;;
4182;SDS011;2105;52.300;9.182;2022-09-03T09:20:20;5.60;;;5.10;;
4182;SDS011;2105;52.300;9.182;2022-09-03T09:22:53;5.63;;;5.10;;
4182;SDS011;2105;52.300;9.182;2022-09-03T09:25:23;10.67;;;5.20;;
4182;SDS011;2105;52.300;9.182;2022-09-03T09:27:53;5.67;;;4.77;;
4182;SDS011;2105;52.300;9.182;2022-09-03T09:30:24;5.63;;;5.00;;
4182;SDS011;2105;52.300;9.182;2022-09-03T09:32:51;8.33;;;5.10;;
4182;SDS011;2105;52.300;9.182;2022-09-03T09:35:21;8.23;;;5.10;;
4182;SDS011;2105;52.300;9.182;2022-09-03T09:37:49;6.47;;;5.10;;
4182;SDS011;2105;52.300;9.182;2022-09-03T09:40:24;5.23;;;4.70;;
4182;SDS011;2105;52.300;9.182;2022-09-03T09:43:02;8.30;;;5.20;;
4182;SDS011;2105;52.300;9.182;2022-09-03T09:45:34;5.63;;;5.10;;
4182;SDS011;2105;52.300;9.182;2022-09-03T09:48:07;5.50;;;5.10;;
4182;SDS011;2105;52.300;9.182;2022-09-03T09:50:39;5.87;;;5.37;;
4182;SDS011;2105;52.300;9.182;2022-09-03T09:53:07;5.97;;;5.30;;
4182;SDS011;2105;52.300;9.182;2022-09-03T09:55:49;6.53;;;5.77;;
4182;SDS011;2105;52.300;9.182;2022-09-03T09:58:18;7.40;;;5.70;;
4182;SDS011;2105;52.300;9.182;2022-09-03T10:01:03;5.80;;;5.40;;
4182;SDS011;2105;52.300;9.182;2022-09-03T10:03:40;11.33;;;4.63;;
4182;SDS011;2105;52.300;9.182;2022-09-03T10:06:15;7.00;;;4.60;;
4182;SDS011;2105;52.300;9.182;2022-09-03T10:09:06;5.33;;;4.80;;
4182;SDS011;2105;52.300;9.182;2022-09-03T10:11:34;5.80;;;4.50;;
4182;SDS011;2105;52.300;9.182;2022-09-03T10:14:03;5.33;;;4.93;;
4182;SDS011;2105;52.300;9.182;2022-09-03T10:16:38;5.47;;;4.97;;
4182;SDS011;2105;52.300;9.182;2022-09-03T10:19:14;5.80;;;5.40;;
4182;SDS011;2105;52.300;9.182;2022-09-03T10:21:46;11.97;;;5.60;;
4182;SDS011;2105;52.300;9.182;2022-09-03T10:24:31;5.13;;;4.70;;
4182;SDS011;2105;52.300;9.182;2022-09-03T10:27:06;11.73;;;5.17;;
4182;SDS011;2105;52.300;9.182;2022-09-03T10:29:36;6.27;;;5.77;;
4182;SDS011;2105;52.300;9.182;2022-09-03T10:32:11;6.93;;;6.43;;
4182;SDS011;2105;52.300;9.182;2022-09-03T10:34:49;7.83;;;5.90;;
4182;SDS011;2105;52.300;9.182;2022-09-03T10:37:25;6.40;;;5.90;;
4182;SDS011;2105;52.300;9.182;2022-09-03T10:40:04;6.77;;;6.03;;
4182;SDS011;2105;52.300;9.182;2022-09-03T10:42:41;6.27;;;5.87;;
4182;SDS011;2105;52.300;9.182;2022-09-03T10:45:17;6.77;;;6.17;;
4182;SDS011;2105;52.300;9.182;2022-09-03T10:50:54;6.90;;;6.30;;
4182;SDS011;2105;52.300;9.182;2022-09-03T10:53:28;6.03;;;5.63;;
4182;SDS011;2105;52.300;9.182;2022-09-03T10:56:05;6.63;;;6.03;;
4182;SDS011;2105;52.300;9.182;2022-09-03T10:58:47;7.67;;;5.70;;
4182;SDS011;2105;52.300;9.182;2022-09-03T11:04:19;5.97;;;5.40;;
4182;SDS011;2105;52.300;9.182;2022-09-03T11:06:54;6.87;;;5.60;;
4182;SDS011;2105;52.300;9.182;2022-09-03T11:09:27;7.50;;;6.20;;
4182;SDS011;2105;52.300;9.182;2022-09-03T11:12:00;6.50;;;6.00;;
4182;SDS011;2105;52.300;9.182;2022-09-03T11:14:33;5.73;;;5.33;;
4182;SDS011;2105;52.300;9.182;2022-09-03T11:17:04;6.40;;;5.90;;
4182;SDS011;2105;52.300;9.182;2022-09-03T11:19:40;6.00;;;5.60;;
4182;SDS011;2105;52.300;9.182;2022-09-03T11:22:14;8.37;;;6.27;;
4182;SDS011;2105;52.300;9.182;2022-09-03T11:24:52;7.03;;;6.33;;
4182;SDS011;2105;52.300;9.182;2022-09-03T11:27:25;6.10;;;5.70;;
4182;SDS011;2105;52.300;9.182;2022-09-03T11:30:02;6.80;;;6.20;;
4182;SDS011;2105;52.300;9.182;2022-09-03T11:32:34;6.03;;;5.53;;
4182;SDS011;2105;52.300;9.182;2022-09-03T11:35:13;6.40;;;5.90;;
4182;SDS011;2105;52.300;9.182;2022-09-03T11:37:45;8.40;;;5.90;;
4182;SDS011;2105;52.300;9.182;2022-09-03T11:40:19;10.67;;;6.10;;
4182;SDS011;2105;52.300;9.182;2022-09-03T11:43:04;6.60;;;6.20;;
4182;SDS011;2105;52.300;9.182;2022-09-03T11:45:35;6.67;;;6.27;;
4182;SDS011;2105;52.300;9.182;2022-09-03T11:48:15;8.37;;;6.10;;
4182;SDS011;2105;52.300;9.182;2022-09-03T11:50:50;8.30;;;6.10;;
4182;SDS011;2105;52.300;9.182;2022-09-03T11:53:22;6.70;;;6.20;;
4182;SDS011;2105;52.300;9.182;2022-09-03T11:55:54;8.90;;;6.30;;
4182;SDS011;2105;52.300;9.182;2022-09-03T11:58:24;7.27;;;6.60;;
4182;SDS011;2105;52.300;9.182;2022-09-03T12:00:54;6.80;;;5.97;;
4182;SDS011;2105;52.300;9.182;2022-09-03T12:03:23;10.70;;;6.40;;
4182;SDS011;2105;52.300;9.182;2022-09-03T12:06:00;7.07;;;6.47;;
4182;SDS011;2105;52.300;9.182;2022-09-03T12:08:47;8.83;;;6.37;;
4182;SDS011;2105;52.300;9.182;2022-09-03T12:11:32;6.70;;;6.10;;
4182;SDS011;2105;52.300;9.182;2022-09-03T12:14:07;7.50;;;6.80;;
4182;SDS011;2105;52.300;9.182;2022-09-03T12:16:46;7.00;;;6.50;;
4182;SDS011;2105;52.300;9.182;2022-09-03T12:19:24;7.47;;;6.60;;
4182;SDS011;2105;52.300;9.182;2022-09-03T12:21:57;7.10;;;6.50;;
4182;SDS011;2105;52.300;9.182;2022-09-03T12:24:26;6.80;;;6.20;;
4182;SDS011;2105;52.300;9.182;2022-09-03T12:27:00;6.80;;;6.20;;
4182;SDS011;2105;52.300;9.182;2022-09-03T12:29:28;6.00;;;5.60;;
4182;SDS011;2105;52.300;9.182;2022-09-03T12:32:04;6.53;;;6.00;;
4182;SDS011;2105;52.300;9.182;2022-09-03T12:34:32;6.63;;;6.00;;
4182;SDS011;2105;52.300;9.182;2022-09-03T12:36:59;10.17;;;6.10;;
4182;SDS011;2105;52.300;9.182;2022-09-03T12:39:27;6.60;;;6.10;;
4182;SDS011;2105;52.300;9.182;2022-09-03T12:41:57;7.20;;;6.50;;
4182;SDS011;2105;52.300;9.182;2022-09-03T12:44:29;7.07;;;6.57;;
4182;SDS011;2105;52.300;9.182;2022-09-03T12:47:00;6.73;;;6.33;;
4182;SDS011;2105;52.300;9.182;2022-09-03T12:49:33;7.73;;;6.40;;
4182;SDS011;2105;52.300;9.182;2022-09-03T12:52:02;7.67;;;6.10;;
4182;SDS011;2105;52.300;9.182;2022-09-03T12:54:34;6.50;;;6.10;;
4182;SDS011;2105;52.300;9.182;2022-09-03T12:57:04;7.00;;;6.30;;
4182;SDS011;2105;52.300;9.182;2022-09-03T12:59:32;7.70;;;7.10;;
4182;SDS011;2105;52.300;9.182;2022-09-03T13:02:02;6.90;;;6.27;;
4182;SDS011;2105;52.300;9.182;2022-09-03T13:04:37;6.47;;;6.07;;
4182;SDS011;2105;52.300;9.182;2022-09-03T13:07:06;8.63;;;6.10;;
4182;SDS011;2105;52.300;9.182;2022-09-03T13:09:38;8.33;;;5.77;;
4182;SDS011;2105;52.300;9.182;2022-09-03T13:12:07;6.43;;;5.90;;
4182;SDS011;2105;52.300;9.182;2022-09-03T13:14:47;7.57;;;6.97;;
4182;SDS011;2105;52.300;9.182;2022-09-03T13:17:16;7.17;;;6.50;;
4182;SDS011;2105;52.300;9.182;2022-09-03T13:19:57;9.80;;;6.40;;
4182;SDS011;2105;52.300;9.182;2022-09-03T13:22:38;7.03;;;6.33;;
4182;SDS011;2105;52.300;9.182;2022-09-03T13:25:19;7.77;;;6.67;;
4182;SDS011;2105;52.300;9.182;2022-09-03T13:27:53;9.00;;;6.50;;
4182;SDS011;2105;52.300;9.182;2022-09-03T13:30:28;7.10;;;6.60;;
4182;SDS011;2105;52.300;9.182;2022-09-03T13:33:00;7.43;;;6.93;;
4182;SDS011;2105;52.300;9.182;2022-09-03T13:35:32;8.90;;;7.40;;
4182;SDS011;2105;52.300;9.182;2022-09-03T13:38:06;7.87;;;7.13;;
4182;SDS011;2105;52.300;9.182;2022-09-03T13:40:46;7.80;;;7.00;;
4182;SDS011;2105;52.300;9.182;2022-09-03T13:43:24;7.40;;;6.70;;
4182;SDS011;2105;52.300;9.182;2022-09-03T13:45:56;7.03;;;6.57;;
4182;SDS011;2105;52.300;9.182;2022-09-03T13:48:27;7.40;;;6.80;;
4182;SDS011;2105;52.300;9.182;2022-09-03T13:51:17;7.10;;;6.50;;
4182;SDS011;2105;52.300;9.182;2022-09-03T13:53:52;11.17;;;6.47;;
4182;SDS011;2105;52.300;9.182;2022-09-03T13:56:31;7.53;;;6.93;;
4182;SDS011;2105;52.300;9.182;2022-09-03T13:59:10;7.67;;;7.00;;
4182;SDS011;2105;52.300;9.182;2022-09-03T14:01:45;11.47;;;6.70;;
4182;SDS011;2105;52.300;9.182;2022-09-03T14:04:24;7.30;;;6.67;;
4182;SDS011;2105;52.300;9.182;2022-09-03T14:07:00;6.30;;;5.90;;
4182;SDS011;2105;52.300;9.182;2022-09-03T14:09:32;7.00;;;6.40;;
4182;SDS011;2105;52.300;9.182;2022-09-03T14:12:04;6.80;;;6.03;;
4182;SDS011;2105;52.300;9.182;2022-09-03T14:14:44;6.13;;;5.73;;
4182;SDS011;2105;52.300;9.182;2022-09-03T14:17:18;9.30;;;6.40;;
4182;SDS011;2105;52.300;9.182;2022-09-03T14:19:56;6.90;;;6.30;;
4182;SDS011;2105;52.300;9.182;2022-09-03T14:22:28;7.23;;;6.53;;
4182;SDS011;2105;52.300;9.182;2022-09-03T14:25:08;8.03;;;6.40;;
4182;SDS011;2105;52.300;9.182;2022-09-03T14:27:38;7.00;;;6.40;;
4182;SDS011;2105;52.300;9.182;2022-09-03T14:30:17;6.67;;;6.17;;
4182;SDS011;2105;52.300;9.182;2022-09-03T14:32:50;7.53;;;6.90;;
4182;SDS011;2105;52.300;9.182;2022-09-03T14:35:28;7.73;;;6.90;;
4182;SDS011;2105;52.300;9.182;2022-09-03T14:38:16;7.73;;;6.67;;
4182;SDS011;2105;52.300;9.182;2022-09-03T14:41:02;7.63;;;7.03;;
4182;SDS011;2105;52.300;9.182;2022-09-03T14:46:47;10.10;;;7.10;;
4182;SDS011;2105;52.300;9.182;2022-09-03T14:49:37;7.00;;;6.57;;
4182;SDS011;2105;52.300;9.182;2022-09-03T14:52:16;7.07;;;6.47;;
4182;SDS011;2105;52.300;9.182;2022-09-03T14:57:50;6.90;;;6.20;;
4182;SDS011;2105;52.300;9.182;2022-09-03T15:00:28;7.00;;;6.40;;
4182;SDS011;2105;52.300;9.182;2022-09-03T15:03:06;6.70;;;6.20;;
4182;SDS011;2105;52.300;9.182;2022-09-03T15:05:55;6.13;;;5.80;;
4182;SDS011;2105;52.300;9.182;2022-09-03T15:08:35;7.00;;;6.40;;
4182;SDS011;2105;52.300;9.182;2022-09-03T15:11:16;9.53;;;6.60;;
4182;SDS011;2105;52.300;9.182;2022-09-03T15:13:47;7.37;;;6.77;;
4182;SDS011;2105;52.300;9.182;2022-09-03T15:16:19;6.73;;;6.10;;
4182;SDS011;2105;52.300;9.182;2022-09-03T15:19:01;7.00;;;6.50;;
4182;SDS011;2105;52.300;9.182;2022-09-03T15:21:45;7.00;;;6.50;;
4182;SDS011;2105;52.300;9.182;2022-09-03T15:24:30;8.40;;;6.50;;
4182;SDS011;2105;52.300;9.182;2022-09-03T15:27:11;10.57;;;6.17;;
4182;SDS011;2105;52.300;9.182;2022-09-03T15:29:56;7.50;;;6.90;;
4182;SDS011;2105;52.300;9.182;2022-09-03T15:32:35;8.00;;;6.43;;
4182;SDS011;2105;52.300;9.182;2022-09-03T15:35:13;7.00;;;6.40;;
4182;SDS011;2105;52.300;9.182;2022-09-03T15:37:53;6.50;;;6.00;;
4182;SDS011;2105;52.300;9.182;2022-09-03T15:40:25;6.57;;;6.17;;
4182;SDS011;2105;52.300;9.182;2022-09-03T15:42:55;6.80;;;6.30;;
4182;SDS011;2105;52.300;9.182;2022-09-03T15:45:31;7.80;;;6.30;;
4182;SDS011;2105;52.300;9.182;2022-09-03T15:48:04;7.03;;;6.20;;
4182;SDS011;2105;52.300;9.182;2022-09-03T15:50:46;6.80;;;6.20;;
4182;SDS011;2105;52.300;9.182;2022-09-03T15:53:18;8.83;;;5.80;;
4182;SDS011;2105;52.300;9.182;2022-09-03T15:56:00;6.97;;;6.40;;
4182;SDS011;2105;52.300;9.182;2022-09-03T15:58:33;6.80;;;6.10;;
4182;SDS011;2105;52.300;9.182;2022-09-03T16:01:05;7.53;;;6.20;;